Wetterdaten: aktuell Freitag, 28.02.2020 22:15
Datum Zeit Temp. A. Feuchte A. Luftdruck Regen Wind Taupunkt Windchill Windben
28.02.2020 22:15 1,2 C 73 % 1015,1 hPa 0,0 l/m 4,8 km/h (1 Bft) -3,1 C 1,2 C 9,7 km/h (2 Bft)
28.02.2020 22:10 1,2 C 73 % 1015,2 hPa 0,0 l/m 5,0 km/h (1 Bft) -3,1 C 1,2 C 12,9 km/h (3 Bft)
28.02.2020 22:05 1,2 C 73 % 1015,1 hPa 0,0 l/m 6,4 km/h (2 Bft) -3,1 C 1,2 C 14,5 km/h (3 Bft)
28.02.2020 22:00 1,2 C 73 % 1015,2 hPa 0,0 l/m 5,9 km/h (2 Bft) -3,1 C 1,2 C 12,9 km/h (3 Bft)
28.02.2020 21:55 1,2 C 73 % 1015,2 hPa 0,0 l/m 3,4 km/h (1 Bft) -3,1 C 1,2 C 6,4 km/h (2 Bft)
28.02.2020 21:50 1,3 C 73 % 1015,4 hPa 0,0 l/m 7,2 km/h (2 Bft) -3,0 C 0,5 C 14,5 km/h (3 Bft)
28.02.2020 21:45 1,3 C 73 % 1015,4 hPa 0,0 l/m 6,7 km/h (2 Bft) -3,0 C 1,0 C 12,9 km/h (3 Bft)
28.02.2020 21:40 1,3 C 73 % 1015,6 hPa 0,0 l/m 5,0 km/h (1 Bft) -3,0 C 1,3 C 9,7 km/h (2 Bft)
28.02.2020 21:35 1,3 C 73 % 1015,8 hPa 0,0 l/m 5,2 km/h (1 Bft) -3,0 C 1,3 C 11,3 km/h (2 Bft)
28.02.2020 21:30 1,3 C 73 % 1015,7 hPa 0,0 l/m 5,3 km/h (1 Bft) -3,0 C 1,3 C 12,9 km/h (3 Bft)
28.02.2020 21:25 1,3 C 74 % 1015,8 hPa 0,0 l/m 5,9 km/h (2 Bft) -2,8 C 1,3 C 12,9 km/h (3 Bft)
28.02.2020 21:20 1,3 C 74 % 1015,9 hPa 0,0 l/m 5,4 km/h (1 Bft) -2,8 C 1,3 C 12,9 km/h (3 Bft)
28.02.2020 21:15 1,3 C 74 % 1016,1 hPa 0,0 l/m 4,6 km/h (1 Bft) -2,8 C 1,3 C 11,3 km/h (2 Bft)
28.02.2020 21:10 1,4 C 74 % 1016,2 hPa 0,0 l/m 3,6 km/h (1 Bft) -2,7 C 1,4 C 11,3 km/h (2 Bft)
28.02.2020 21:05 1,4 C 74 % 1016,0 hPa 0,0 l/m 3,7 km/h (1 Bft) -2,7 C 1,4 C 9,7 km/h (2 Bft)
28.02.2020 21:00 1,4 C 74 % 1016,3 hPa 0,0 l/m 3,3 km/h (1 Bft) -2,7 C 1,4 C 11,3 km/h (2 Bft)
28.02.2020 20:55 1,4 C 74 % 1016,3 hPa 0,0 l/m 6,5 km/h (2 Bft) -2,7 C 1,3 C 16,1 km/h (3 Bft)
28.02.2020 20:50 1,4 C 74 % 1016,4 hPa 0,0 l/m 6,8 km/h (2 Bft) -2,7 C 1,0 C 14,5 km/h (3 Bft)
28.02.2020 20:45 1,4 C 74 % 1016,5 hPa 0,0 l/m 4,7 km/h (1 Bft) -2,7 C 1,4 C 11,3 km/h (2 Bft)
28.02.2020 20:40 1,4 C 74 % 1016,5 hPa 0,0 l/m 6,3 km/h (2 Bft) -2,7 C 1,4 C 12,9 km/h (3 Bft)
28.02.2020 20:35 1,4 C 74 % 1016,6 hPa 0,0 l/m 6,4 km/h (2 Bft) -2,7 C 1,4 C 16,1 km/h (3 Bft)
_ Min-Zeit 00:25 15:15 00:00 - 18:05 21:55 05:15 17:05
Minimum _ 0,6 C 64 % 1005,4 hPa - 1,0 km/h (0 Bft) -3,1 C -7,9 C 3,2 km/h (1 Bft)
_ Max-Zeit 15:15 00:00 12:25 10:10 05:15 13:30 15:20 05:20
Maximum _ 5,2 C 85 % 1021,8 hPa 0,4 l/m 19,3 km/h
W (3 Bft)
-0,7 C 5,2 C 37,0 km/h
W (5 Bft)
Durchschnitt _ 2,1 C 76 % 1017,0 hPa #15,6 l/m 8,9 km/h (2 Bft) -1,8 C -0,6 C 17,8 km/h (3 Bft)